Time;durP1;ratioP1;P1;durP2;ratioP2;P2;SDS_P1;SDS_P2;PMS_P1;PMS_P2;Temp;Humidity;BMP_temperature;BMP_pressure;BME280_temperature;BME280_humidity;BME280_pressure;Samples;Min_cycle;Max_cycle;Signal;HPM_P1;HPM_P2
2022/07/07 00:01:37;;;;;;;1.17;1.10;;;25.80;64.60;;;;;;4997298;28;20068;-75
2022/07/07 00:04:03;;;;;;;2.35;1.30;;;25.80;64.30;;;;;;5014475;28;20049;-75
2022/07/07 00:06:30;;;;;;;2.72;1.13;;;25.70;64.30;;;;;;4996794;28;20439;-75
2022/07/07 00:08:56;;;;;;;1.27;1.10;;;25.80;64.40;;;;;;4996635;28;20036;-77
2022/07/07 00:11:23;;;;;;;1.13;1.13;;;25.70;64.80;;;;;;5014570;28;20030;-75
2022/07/07 00:13:49;;;;;;;3.92;1.13;;;25.70;65.00;;;;;;4996777;28;20028;-78
2022/07/07 00:16:15;;;;;;;2.35;1.10;;;25.70;64.80;;;;;;5014497;28;20022;-75
2022/07/07 00:18:40;;;;;;;2.08;1.23;;;25.70;64.60;;;;;;4996224;28;20423;-76
2022/07/07 00:21:06;;;;;;;1.23;1.20;;;25.80;64.00;;;;;;4996808;28;20029;-75
2022/07/07 00:23:32;;;;;;;2.35;1.00;;;25.80;64.10;;;;;;5014321;28;20026;-75
2022/07/07 00:25:58;;;;;;;1.48;1.20;;;25.70;63.80;;;;;;5014084;28;20504;-75
2022/07/07 00:28:23;;;;;;;1.40;1.30;;;25.80;63.70;;;;;;5014279;28;20037;-76
2022/07/07 00:30:49;;;;;;;1.40;1.08;;;25.80;63.80;;;;;;5013991;28;20052;-75
2022/07/07 00:33:15;;;;;;;2.08;1.10;;;25.80;63.60;;;;;;5014207;28;20033;-75
2022/07/07 00:35:41;;;;;;;1.35;1.25;;;25.70;63.80;;;;;;4996404;28;20029;-75
2022/07/07 00:38:07;;;;;;;2.20;1.00;;;25.80;64.00;;;;;;4995996;28;20026;-76
2022/07/07 00:40:33;;;;;;;3.85;1.02;;;25.80;64.10;;;;;;4996269;28;20053;-77
2022/07/07 00:42:58;;;;;;;1.40;1.30;;;25.70;64.10;;;;;;4996291;28;20018;-75
2022/07/07 00:45:24;;;;;;;1.00;1.00;;;25.80;64.10;;;;;;5013909;28;20052;-74
2022/07/07 00:47:50;;;;;;;4.47;1.23;;;25.70;64.00;;;;;;5013856;28;20435;-78
2022/07/07 00:50:16;;;;;;;1.45;1.35;;;25.70;64.20;;;;;;5013970;28;20026;-75
2022/07/07 00:52:42;;;;;;;0.85;0.85;;;25.70;64.80;;;;;;4995979;28;20072;-75
2022/07/07 00:55:08;;;;;;;1.85;0.98;;;25.70;65.20;;;;;;4996155;28;20026;-75
2022/07/07 00:57:34;;;;;;;1.00;1.00;;;25.60;65.50;;;;;;5013600;28;20030;-75
2022/07/07 01:00:05;;;;;;;1.45;1.30;;;25.50;66.20;;;;;;5013583;28;20538;-75
2022/07/07 01:02:32;;;;;;;2.72;1.40;;;25.30;66.60;;;;;;5013536;28;20018;-75
2022/07/07 01:04:59;;;;;;;1.33;1.23;;;25.40;66.70;;;;;;4995903;28;20073;-75
2022/07/07 01:07:26;;;;;;;2.00;1.10;;;25.40;67.10;;;;;;4995725;28;20033;-75
2022/07/07 01:09:54;;;;;;;1.17;1.17;;;25.40;66.80;;;;;;5013580;28;20029;-75
2022/07/07 01:12:19;;;;;;;3.15;1.00;;;25.40;66.90;;;;;;4995813;28;20055;-75
2022/07/07 01:14:45;;;;;;;7.68;1.15;;;25.30;67.10;;;;;;5013314;28;20097;-75
2022/07/07 01:17:11;;;;;;;1.35;1.10;;;25.30;67.60;;;;;;5013362;28;20029;-75
2022/07/07 01:19:36;;;;;;;1.50;1.08;;;25.30;68.00;;;;;;5013143;28;20021;-75
2022/07/07 01:22:16;;;;;;;1.00;1.00;;;25.20;67.80;;;;;;4995594;28;20057;-75
2022/07/07 01:24:43;;;;;;;2.83;1.23;;;25.40;67.70;;;;;;5013078;28;20638;-74
2022/07/07 01:27:12;;;;;;;3.10;1.08;;;25.40;66.90;;;;;;4995547;28;20469;-77
2022/07/07 01:29:48;;;;;;;1.10;1.10;;;25.50;67.10;;;;;;5013252;28;20508;-75
2022/07/07 01:32:15;;;;;;;2.53;1.48;;;25.50;67.20;;;;;;4994926;28;20502;-77
2022/07/07 01:34:43;;;;;;;3.80;1.50;;;25.50;67.50;;;;;;5012978;28;20026;-75
2022/07/07 01:37:09;;;;;;;0.85;0.85;;;25.50;67.30;;;;;;5013123;28;20022;-75
2022/07/07 01:39:36;;;;;;;1.10;1.10;;;25.50;67.10;;;;;;5013283;28;20030;-75
2022/07/07 01:42:02;;;;;;;1.15;1.10;;;25.60;67.10;;;;;;4995605;28;20046;-75
2022/07/07 01:44:38;;;;;;;0.98;0.98;;;25.70;66.80;;;;;;5012938;28;20046;-74
2022/07/07 01:47:05;;;;;;;1.05;0.90;;;25.70;66.90;;;;;;4995284;28;20037;-75
2022/07/07 01:49:32;;;;;;;3.08;1.15;;;25.60;66.90;;;;;;5013280;28;20025;-74
2022/07/07 01:51:58;;;;;;;1.30;1.08;;;25.60;67.30;;;;;;4995600;28;20029;-76
2022/07/07 01:54:25;;;;;;;0.90;0.90;;;25.50;67.40;;;;;;5013020;28;20604;-75
2022/07/07 01:56:51;;;;;;;1.15;0.90;;;25.50;67.60;;;;;;5013056;28;20475;-75
2022/07/07 01:59:17;;;;;;;1.77;1.15;;;25.50;67.90;;;;;;5013079;28;20536;-75
2022/07/07 02:01:43;;;;;;;0.93;0.93;;;25.30;68.80;;;;;;5012832;28;20025;-77
2022/07/07 02:04:09;;;;;;;1.17;1.08;;;25.30;69.00;;;;;;4994915;28;20627;-77
2022/07/07 02:06:35;;;;;;;1.00;1.00;;;25.30;69.10;;;;;;5013018;28;20033;-77
2022/07/07 02:09:01;;;;;;;1.00;0.90;;;25.30;69.20;;;;;;4995453;28;20029;-76
2022/07/07 02:11:27;;;;;;;1.58;1.48;;;25.30;69.40;;;;;;5012709;28;20026;-77
2022/07/07 02:13:53;;;;;;;2.38;1.10;;;25.20;69.60;;;;;;4995189;28;20367;-77
2022/07/07 02:16:22;;;;;;;4.05;1.30;;;25.30;69.60;;;;;;5012749;28;20547;-77
2022/07/07 02:18:51;;;;;;;2.35;1.02;;;25.30;70.00;;;;;;4995317;28;20538;-77
2022/07/07 02:21:17;;;;;;;2.25;1.23;;;25.30;70.00;;;;;;4995444;28;20026;-77
2022/07/07 02:23:45;;;;;;;1.00;0.88;;;25.20;70.20;;;;;;5012905;28;20487;-77
2022/07/07 02:26:11;;;;;;;1.50;1.20;;;25.20;70.10;;;;;;5012896;28;20110;-77
2022/07/07 02:28:38;;;;;;;1.00;1.00;;;25.20;70.20;;;;;;4995272;28;20113;-76
2022/07/07 02:31:05;;;;;;;1.80;1.25;;;25.20;70.30;;;;;;5012396;28;20052;-77
2022/07/07 02:33:31;;;;;;;1.40;1.30;;;25.20;70.50;;;;;;4995047;28;20029;-76
2022/07/07 02:35:57;;;;;;;0.98;0.98;;;25.10;70.70;;;;;;4994955;28;20034;-77
2022/07/07 02:38:23;;;;;;;1.10;1.08;;;25.10;71.20;;;;;;5012489;28;20029;-77
2022/07/07 02:40:50;;;;;;;3.65;1.20;;;25.00;71.30;;;;;;5012722;28;20030;-77
2022/07/07 02:43:17;;;;;;;1.67;0.93;;;25.00;71.30;;;;;;5015226;28;20076;-77
2022/07/07 02:45:44;;;;;;;0.82;0.82;;;25.00;71.30;;;;;;5016100;28;20114;-77
2022/07/07 02:48:11;;;;;;;1.10;1.00;;;25.00;71.30;;;;;;4998405;28;20510;-78
2022/07/07 02:50:38;;;;;;;3.75;0.98;;;25.00;71.60;;;;;;5016252;28;20113;-77
2022/07/07 02:53:04;;;;;;;0.90;0.90;;;25.00;71.40;;;;;;5015912;28;20053;-78
2022/07/07 02:55:30;;;;;;;1.50;1.33;;;25.00;71.10;;;;;;5015877;28;20476;-77
2022/07/07 02:58:00;;;;;;;2.30;0.93;;;25.00;70.90;;;;;;5015895;28;20113;-77
2022/07/07 03:00:27;;;;;;;1.40;1.30;;;25.00;69.70;;;;;;4998188;28;20451;-77
2022/07/07 03:02:54;;;;;;;1.10;1.10;;;25.10;70.30;;;;;;5015788;28;20665;-77
2022/07/07 03:05:21;;;;;;;1.10;1.10;;;25.10;70.40;;;;;;4998075;28;20100;-76
2022/07/07 03:07:47;;;;;;;2.05;1.40;;;25.10;70.20;;;;;;5015679;28;20396;-77
2022/07/07 03:10:13;;;;;;;2.70;1.30;;;25.20;70.10;;;;;;4998115;28;20483;-77
2022/07/07 03:12:39;;;;;;;1.15;1.00;;;25.20;70.40;;;;;;5015679;28;20030;-77
2022/07/07 03:15:06;;;;;;;1.00;1.00;;;25.20;70.90;;;;;;5015634;28;20028;-77
2022/07/07 03:17:32;;;;;;;1.88;1.15;;;25.20;71.10;;;;;;4997592;28;20053;-78
2022/07/07 03:19:57;;;;;;;1.10;1.10;;;25.10;71.40;;;;;;5015316;28;20058;-77
2022/07/07 03:22:23;;;;;;;2.15;0.90;;;25.00;71.60;;;;;;4997749;28;20026;-77
2022/07/07 03:24:49;;;;;;;1.50;1.08;;;25.00;71.70;;;;;;5015236;28;20025;-77
2022/07/07 03:27:15;;;;;;;1.73;1.00;;;25.10;71.30;;;;;;5015508;28;20068;-77
2022/07/07 03:29:40;;;;;;;1.23;1.23;;;25.20;70.40;;;;;;4997711;28;20034;-77
2022/07/07 03:32:06;;;;;;;2.00;1.20;;;25.40;70.20;;;;;;5015433;28;20018;-77
2022/07/07 03:34:32;;;;;;;0.90;0.90;;;25.40;69.10;;;;;;4997532;28;20435;-78
2022/07/07 03:36:58;;;;;;;1.48;1.38;;;25.40;68.60;;;;;;5015190;28;20018;-77
2022/07/07 03:39:24;;;;;;;1.23;1.10;;;25.50;68.90;;;;;;4997414;28;20387;-77
2022/07/07 03:41:49;;;;;;;1.02;1.02;;;25.40;70.20;;;;;;4997600;28;20112;-76
2022/07/07 03:44:15;;;;;;;1.10;1.10;;;25.30;71.00;;;;;;5014853;28;20022;-76
2022/07/07 03:46:41;;;;;;;1.30;1.30;;;25.20;73.10;;;;;;5014779;28;20030;-76
2022/07/07 03:49:07;;;;;;;1.58;1.33;;;25.00;77.50;;;;;;5014897;28;20029;-77
2022/07/07 03:51:33;;;;;;;3.90;1.60;;;24.60;81.90;;;;;;4997403;28;20026;-77
2022/07/07 03:53:59;;;;;;;2.70;1.48;;;24.10;88.50;;;;;;4996169;28;20141;-77
2022/07/07 03:56:25;;;;;;;2.35;1.30;;;23.70;92.30;;;;;;5014875;28;20704;-76
2022/07/07 03:58:50;;;;;;;3.75;1.55;;;23.70;93.90;;;;;;4997060;28;20030;-77
2022/07/07 04:01:16;;;;;;;3.47;1.65;;;23.70;95.50;;;;;;4997199;28;20460;-77
2022/07/07 04:03:42;;;;;;;3.80;2.00;;;23.40;97.00;;;;;;4996873;28;20046;-78
2022/07/07 04:06:07;;;;;;;2.38;1.38;;;23.20;97.30;;;;;;5014912;28;20167;-76
2022/07/07 04:08:33;;;;;;;3.30;1.40;;;23.10;95.60;;;;;;4977919;28;20022;-76
2022/07/07 04:10:59;;;;;;;2.42;1.70;;;23.10;95.10;;;;;;4995018;28;20364;-77
2022/07/07 04:13:25;;;;;;;5.50;1.58;;;23.00;95.90;;;;;;4995018;28;20030;-77
2022/07/07 04:15:51;;;;;;;4.47;1.67;;;22.80;97.80;;;;;;4994753;28;20026;-77
2022/07/07 04:18:17;;;;;;;5.60;1.90;;;22.70;98.50;;;;;;4994768;28;20027;-77
2022/07/07 04:20:43;;;;;;;3.47;1.77;;;22.50;99.20;;;;;;4994935;28;20022;-77
2022/07/07 04:23:09;;;;;;;3.00;1.67;;;22.30;99.80;;;;;;4977156;28;20042;-78
2022/07/07 04:25:34;;;;;;;2.90;1.52;;;22.10;99.90;;;;;;5002078;28;20028;-78
2022/07/07 04:28:00;;;;;;;3.30;1.60;;;22.20;99.90;;;;;;5014401;28;20544;-77
2022/07/07 04:30:26;;;;;;;2.05;1.50;;;22.20;99.10;;;;;;4996725;28;20472;-77
2022/07/07 04:32:52;;;;;;;1.48;1.38;;;22.30;99.40;;;;;;4996567;28;20029;-78
2022/07/07 04:35:20;;;;;;;2.35;1.67;;;22.30;99.60;;;;;;5014002;28;20026;-77
2022/07/07 04:37:46;;;;;;;4.97;1.90;;;22.30;99.80;;;;;;4996211;28;20030;-77
2022/07/07 04:40:12;;;;;;;4.18;1.85;;;22.30;99.10;;;;;;4996253;28;20464;-78
2022/07/07 04:42:38;;;;;;;3.22;1.92;;;22.40;99.30;;;;;;4996106;28;20455;-78
2022/07/07 04:45:04;;;;;;;1.85;1.75;;;22.30;99.90;;;;;;5013696;28;20050;-77
2022/07/07 04:47:30;;;;;;;4.18;1.90;;;22.20;99.90;;;;;;5013627;28;20018;-76
2022/07/07 04:49:55;;;;;;;2.15;2.00;;;22.10;99.90;;;;;;4996305;28;20030;-78
2022/07/07 04:52:21;;;;;;;2.55;1.77;;;22.10;99.90;;;;;;4996133;28;20018;-77
2022/07/07 04:54:47;;;;;;;1.95;1.85;;;22.10;99.90;;;;;;4996120;28;20030;-78
2022/07/07 04:57:12;;;;;;;2.42;1.77;;;22.10;99.90;;;;;;5013680;28;20494;-77
2022/07/07 04:59:40;;;;;;;2.03;1.63;;;22.00;99.90;;;;;;5013525;28;20026;-77
2022/07/07 05:02:06;;;;;;;1.70;1.60;;;21.90;99.90;;;;;;5013668;28;20440;-78
2022/07/07 05:04:32;;;;;;;1.90;1.77;;;22.00;99.90;;;;;;4995492;28;20042;-77
2022/07/07 05:06:58;;;;;;;2.50;1.75;;;22.00;99.90;;;;;;5013663;28;20431;-78
2022/07/07 05:09:24;;;;;;;1.75;1.65;;;22.10;99.90;;;;;;4995947;28;20706;-77
2022/07/07 05:11:50;;;;;;;2.10;1.90;;;22.20;99.90;;;;;;4995853;28;20026;-78
2022/07/07 05:14:16;;;;;;;2.40;1.45;;;22.20;99.90;;;;;;4995647;28;20153;-77
2022/07/07 05:16:43;;;;;;;2.45;1.40;;;22.40;99.90;;;;;;5013555;28;20033;-77
2022/07/07 05:19:09;;;;;;;1.95;1.30;;;22.40;99.90;;;;;;4995755;28;20041;-77
2022/07/07 05:21:37;;;;;;;1.60;1.50;;;22.60;99.80;;;;;;4995544;28;20120;-77
2022/07/07 05:24:03;;;;;;;1.80;1.70;;;22.70;99.60;;;;;;5013207;28;20037;-77
2022/07/07 05:26:29;;;;;;;1.25;1.15;;;22.80;99.20;;;;;;4995671;28;20022;-77
2022/07/07 05:28:55;;;;;;;1.58;1.48;;;22.90;99.30;;;;;;4995892;28;20045;-77
2022/07/07 05:31:20;;;;;;;1.40;1.27;;;23.00;98.80;;;;;;4995704;28;20120;-77
2022/07/07 05:33:46;;;;;;;1.23;1.23;;;23.10;98.10;;;;;;5012962;28;20029;-76
2022/07/07 05:36:12;;;;;;;1.70;1.23;;;23.20;98.40;;;;;;5013310;28;20030;-77
2022/07/07 05:38:38;;;;;;;1.77;1.40;;;23.30;98.70;;;;;;4995700;28;20030;-76
2022/07/07 05:41:04;;;;;;;1.95;1.48;;;23.30;98.40;;;;;;4995383;28;20049;-76
2022/07/07 05:43:29;;;;;;;1.70;1.60;;;23.40;98.50;;;;;;4995494;28;20026;-78
2022/07/07 05:45:55;;;;;;;1.90;1.20;;;23.50;98.20;;;;;;5012790;28;20109;-77
2022/07/07 05:48:21;;;;;;;1.67;1.30;;;23.60;97.60;;;;;;4995348;28;20087;-77
2022/07/07 05:50:47;;;;;;;1.73;1.52;;;23.70;97.60;;;;;;4995461;28;20018;-77
2022/07/07 05:53:12;;;;;;;1.60;1.50;;;23.90;96.60;;;;;;5012936;28;20496;-77
2022/07/07 05:55:38;;;;;;;1.20;1.20;;;24.00;96.50;;;;;;4995322;28;20134;-77
2022/07/07 05:58:04;;;;;;;1.30;1.20;;;24.10;96.60;;;;;;4995242;28;20033;-77
2022/07/07 06:00:30;;;;;;;3.05;1.58;;;24.20;96.20;;;;;;5013077;28;20026;-77
2022/07/07 06:02:56;;;;;;;6.32;1.38;;;24.40;95.60;;;;;;4995472;28;20026;-78
2022/07/07 06:05:22;;;;;;;1.42;1.33;;;24.60;95.00;;;;;;4994895;28;20431;-77
2022/07/07 06:07:48;;;;;;;1.60;1.50;;;24.70;95.90;;;;;;5012708;28;20056;-77
2022/07/07 06:10:14;;;;;;;1.95;1.15;;;24.80;95.70;;;;;;5012877;28;20022;-77
2022/07/07 06:12:42;;;;;;;3.35;1.30;;;24.90;95.10;;;;;;4995326;28;20026;-78
2022/07/07 06:15:08;;;;;;;1.80;1.70;;;25.00;94.40;;;;;;5012757;28;20117;-77
2022/07/07 06:17:35;;;;;;;1.65;1.23;;;25.00;95.70;;;;;;4996648;28;20533;-77
2022/07/07 06:20:01;;;;;;;1.70;1.40;;;25.00;95.70;;;;;;5016814;28;20062;-77
2022/07/07 06:22:28;;;;;;;2.70;1.55;;;25.00;97.40;;;;;;5016599;28;20024;-77
2022/07/07 06:24:53;;;;;;;1.63;1.52;;;25.20;97.00;;;;;;4998922;28;20456;-77
2022/07/07 06:27:20;;;;;;;1.70;1.60;;;25.20;96.50;;;;;;5016544;28;20107;-77
2022/07/07 06:29:46;;;;;;;1.25;1.20;;;25.30;96.10;;;;;;5016641;28;20080;-77
2022/07/07 06:32:15;;;;;;;1.60;1.50;;;25.30;95.80;;;;;;4998655;28;20057;-77
2022/07/07 06:34:41;;;;;;;1.60;1.50;;;25.30;94.20;;;;;;4996768;28;20034;-77
2022/07/07 06:37:07;;;;;;;6.80;1.70;;;25.40;94.10;;;;;;5016380;28;20033;-77
2022/07/07 06:39:33;;;;;;;1.83;1.42;;;25.40;94.30;;;;;;4998570;28;20034;-77
2022/07/07 06:41:59;;;;;;;1.20;1.20;;;25.50;95.20;;;;;;5016128;28;20476;-77
2022/07/07 06:44:30;;;;;;;1.35;1.25;;;25.50;94.50;;;;;;4998420;28;20443;-77
2022/07/07 06:46:58;;;;;;;3.10;1.48;;;25.60;95.90;;;;;;4998496;28;20026;-76
2022/07/07 06:49:27;;;;;;;1.63;1.52;;;25.50;96.40;;;;;;5016169;28;20034;-77
2022/07/07 06:51:53;;;;;;;1.63;1.13;;;25.50;96.40;;;;;;5016034;28;20032;-77
2022/07/07 06:54:20;;;;;;;1.80;1.33;;;25.60;95.50;;;;;;4998232;28;20104;-77
2022/07/07 06:56:45;;;;;;;1.50;1.40;;;25.70;95.20;;;;;;4998517;28;20039;-76
2022/07/07 06:59:11;;;;;;;2.55;1.40;;;25.70;94.90;;;;;;5015206;28;20025;-76
2022/07/07 07:01:37;;;;;;;2.28;1.35;;;25.80;95.60;;;;;;5015522;28;20109;-76
2022/07/07 07:04:03;;;;;;;1.35;1.25;;;25.90;94.10;;;;;;5014809;28;20539;-76
2022/07/07 07:06:29;;;;;;;1.55;1.30;;;25.90;92.90;;;;;;4997940;28;20022;-77
2022/07/07 07:08:56;;;;;;;1.35;1.25;;;26.10;91.80;;;;;;4997650;28;20030;-77
2022/07/07 07:11:22;;;;;;;2.03;1.17;;;26.10;89.90;;;;;;5015443;28;20022;-76
2022/07/07 07:13:47;;;;;;;4.63;1.35;;;26.20;87.50;;;;;;4997548;28;20510;-76
2022/07/07 07:16:15;;;;;;;4.70;1.15;;;26.20;86.40;;;;;;5015243;28;20022;-77
2022/07/07 07:18:40;;;;;;;1.20;1.20;;;26.20;84.90;;;;;;4989695;28;20154;-77
2022/07/07 07:21:06;;;;;;;1.50;1.40;;;26.30;85.00;;;;;;4982808;28;20504;-77
2022/07/07 07:23:35;;;;;;;1.23;1.10;;;26.40;85.10;;;;;;4995177;28;20030;-77
2022/07/07 07:26:01;;;;;;;1.77;1.02;;;26.40;84.40;;;;;;4977666;28;20027;-77
2022/07/07 07:28:27;;;;;;;2.47;1.30;;;26.40;81.10;;;;;;4976373;28;20023;-77
2022/07/07 07:30:53;;;;;;;1.20;1.20;;;26.50;80.40;;;;;;4995135;28;20030;-77
2022/07/07 07:33:18;;;;;;;1.05;0.98;;;26.50;81.00;;;;;;4995371;28;20113;-77
2022/07/07 07:35:44;;;;;;;3.45;0.90;;;26.60;80.10;;;;;;4977697;28;20022;-77
2022/07/07 07:38:10;;;;;;;4.03;1.45;;;26.60;77.80;;;;;;4995248;28;20056;-77
2022/07/07 07:55:42;;;;;;;1.95;1.20;;;26.70;74.30;;;;;;5066885;28;20375;-78
2022/07/07 07:58:08;;;;;;;2.60;1.25;;;27.40;73.10;;;;;;5066982;28;20044;-78
2022/07/07 08:00:34;;;;;;;1.63;1.27;;;27.20;71.40;;;;;;5066878;28;20064;-78
2022/07/07 08:02:59;;;;;;;1.05;1.05;;;27.30;71.50;;;;;;5066577;28;20017;-78
2022/07/07 08:05:26;;;;;;;1.58;1.20;;;27.30;71.10;;;;;;5066379;28;20081;-78
2022/07/07 08:07:52;;;;;;;2.20;1.23;;;27.40;70.70;;;;;;5065130;28;20506;-77
2022/07/07 08:10:18;;;;;;;1.15;1.15;;;27.40;71.00;;;;;;5066441;28;20740;-78
2022/07/07 08:12:45;;;;;;;1.00;0.95;;;27.40;71.50;;;;;;5066318;28;20077;-78
2022/07/07 08:15:11;;;;;;;2.90;1.58;;;27.50;71.20;;;;;;5065179;28;20035;-77
2022/07/07 08:17:41;;;;;;;4.22;1.20;;;27.60;71.90;;;;;;5063344;28;20101;-78
2022/07/07 08:20:10;;;;;;;1.50;1.40;;;27.60;70.30;;;;;;5060931;28;20396;-77
2022/07/07 08:22:37;;;;;;;1.77;1.67;;;27.60;70.80;;;;;;5045952;28;20029;-77
2022/07/07 08:25:03;;;;;;;2.08;1.27;;;27.80;71.30;;;;;;5062713;28;20115;-76
2022/07/07 08:27:29;;;;;;;4.28;1.23;;;27.80;70.00;;;;;;5063515;28;20103;-79
2022/07/07 08:29:55;;;;;;;3.17;1.30;;;27.90;68.40;;;;;;5062953;28;20062;-77
2022/07/07 08:32:24;;;;;;;1.05;1.05;;;28.00;67.80;;;;;;5063262;28;20024;-76
2022/07/07 08:34:50;;;;;;;2.28;1.35;;;28.10;66.60;;;;;;5063417;28;20032;-77
2022/07/07 08:37:16;;;;;;;1.92;1.58;;;28.20;66.40;;;;;;5063444;28;20073;-76
2022/07/07 08:39:41;;;;;;;2.50;1.35;;;28.20;66.70;;;;;;5062881;28;20029;-76
2022/07/07 08:42:07;;;;;;;1.00;1.00;;;28.30;67.80;;;;;;5063228;28;20104;-76
2022/07/07 08:44:43;;;;;;;1.10;1.10;;;28.30;67.30;;;;;;5063531;28;20149;-77
2022/07/07 08:47:11;;;;;;;1.58;1.48;;;28.30;68.90;;;;;;5061906;28;20032;-78
2022/07/07 08:49:37;;;;;;;2.78;1.60;;;28.50;69.30;;;;;;5063430;28;20635;-76
2022/07/07 08:52:03;;;;;;;1.55;1.00;;;28.40;70.20;;;;;;5063144;28;20097;-78
2022/07/07 08:54:31;;;;;;;3.22;1.80;;;28.50;69.60;;;;;;5060484;28;20055;-78
2022/07/07 08:56:57;;;;;;;2.03;1.45;;;28.60;70.60;;;;;;5048525;28;20169;-78
2022/07/07 08:59:23;;;;;;;3.22;1.77;;;28.70;72.00;;;;;;5049753;28;20108;-79
2022/07/07 09:02:00;;;;;;;1.45;1.35;;;28.80;71.60;;;;;;5050083;28;20021;-78
2022/07/07 09:04:26;;;;;;;2.00;1.63;;;28.90;70.80;;;;;;5047090;28;20065;-78
2022/07/07 09:07:04;;;;;;;2.05;1.65;;;28.90;71.60;;;;;;5048075;28;20037;-78
2022/07/07 09:09:35;;;;;;;2.15;1.50;;;29.00;71.00;;;;;;5049359;28;20017;-78
2022/07/07 09:12:01;;;;;;;;;;;29.00;71.10;;;;;;5049628;28;20472;-77
2022/07/07 09:14:41;;;;;;;2.83;2.63;;;29.00;72.10;;;;;;5049629;28;20355;-78
2022/07/07 09:17:25;;;;;;;1.65;1.40;;;28.80;71.60;;;;;;5049796;28;20032;-78
2022/07/07 09:20:08;;;;;;;6.80;3.67;;;28.80;69.70;;;;;;5048923;28;20048;-77
2022/07/07 09:22:48;;;;;;;11.05;3.30;;;28.80;72.20;;;;;;5029332;28;20376;-77
2022/07/07 09:25:16;;;;;;;1.70;1.60;;;28.80;71.40;;;;;;5029248;28;20026;-77
2022/07/07 09:27:50;;;;;;;4.03;2.15;;;28.80;67.70;;;;;;5029626;28;20057;-78
2022/07/07 09:30:28;;;;;;;1.95;1.85;;;28.80;67.30;;;;;;5029848;28;20029;-77
2022/07/07 09:32:55;;;;;;;1.65;1.55;;;28.60;66.80;;;;;;5029893;28;20421;-78
2022/07/07 09:38:22;;;;;;;2.15;1.90;;;28.50;67.60;;;;;;5030188;28;20113;-78
2022/07/07 09:40:54;;;;;;;2.45;2.22;;;28.50;67.40;;;;;;5029829;28;20108;-78
2022/07/07 09:43:21;;;;;;;1.45;1.38;;;28.30;66.50;;;;;;5029628;28;20029;-78
2022/07/07 09:46:06;;;;;;;1.67;1.58;;;28.30;67.40;;;;;;5028921;28;20068;-78
2022/07/07 09:48:33;;;;;;;2.63;1.70;;;28.40;69.00;;;;;;5029350;28;20025;-79
2022/07/07 09:51:29;;;;;;;1.48;1.40;;;28.50;69.80;;;;;;5036319;28;20483;-78
2022/07/07 09:54:05;;;;;;;1.80;1.40;;;28.60;67.50;;;;;;5047785;28;20538;-75
2022/07/07 09:56:32;;;;;;;1.20;1.10;;;28.50;64.80;;;;;;5046884;28;20055;-76
2022/07/07 09:59:00;;;;;;;1.58;1.48;;;28.70;66.70;;;;;;5046969;28;20045;-76
2022/07/07 10:01:32;;;;;;;2.85;1.50;;;28.90;67.20;;;;;;5031198;28;20059;-76
2022/07/07 10:04:04;;;;;;;1.65;1.40;;;28.90;66.00;;;;;;5027356;28;20373;-76
2022/07/07 10:06:32;;;;;;;1.60;1.50;;;28.90;66.90;;;;;;5027628;28;20082;-76
2022/07/07 10:09:05;;;;;;;1.27;1.25;;;29.10;67.30;;;;;;5027899;28;20544;-76
2022/07/07 10:11:45;;;;;;;2.25;1.40;;;29.10;65.10;;;;;;5028430;28;20110;-76
2022/07/07 10:14:17;;;;;;;3.15;1.48;;;29.20;64.90;;;;;;5028032;28;20032;-76
2022/07/07 10:16:45;;;;;;;7.03;1.60;;;29.20;63.20;;;;;;5027381;28;20053;-76
2022/07/07 10:19:14;;;;;;;1.65;1.48;;;29.20;63.70;;;;;;5031800;28;20491;-76
2022/07/07 10:21:48;;;;;;;1.75;1.65;;;29.40;64.30;;;;;;5051218;28;20052;-79
2022/07/07 10:24:16;;;;;;;1.38;1.38;;;29.60;64.90;;;;;;5050918;28;20032;-79
2022/07/07 10:26:49;;;;;;;2.80;1.85;;;29.60;62.60;;;;;;5050753;28;20082;-78
2022/07/07 10:29:15;;;;;;;5.10;1.42;;;29.60;63.00;;;;;;5050917;28;20013;-78
2022/07/07 10:31:40;;;;;;;1.20;1.10;;;29.80;64.60;;;;;;5050803;28;20647;-79
2022/07/07 10:34:11;;;;;;;1.95;1.50;;;29.90;64.30;;;;;;5050757;28;20112;-78
2022/07/07 10:36:49;;;;;;;1.17;1.17;;;30.00;64.80;;;;;;5048269;28;20032;-78
2022/07/07 10:39:16;;;;;;;3.92;1.90;;;30.00;61.70;;;;;;5048073;28;20032;-78
2022/07/07 10:42:05;;;;;;;3.35;1.67;;;30.00;61.90;;;;;;5048428;28;20428;-78
2022/07/07 10:44:33;;;;;;;1.35;1.35;;;30.00;61.00;;;;;;5046807;28;20025;-79
2022/07/07 10:47:19;;;;;;;1.30;1.13;;;30.10;62.20;;;;;;5048291;28;20360;-78
2022/07/07 10:49:50;;;;;;;2.47;1.60;;;30.30;59.50;;;;;;5037146;28;20033;-78
2022/07/07 10:52:28;;;;;;;4.20;1.55;;;30.20;59.60;;;;;;5048171;28;20002;-78
2022/07/07 10:55:04;;;;;;;1.70;1.27;;;30.00;60.00;;;;;;5047894;28;20522;-78
2022/07/07 10:57:40;;;;;;;1.52;1.52;;;30.10;60.50;;;;;;5048372;28;20029;-78
2022/07/07 11:00:38;;;;;;;1.63;1.50;;;30.10;60.00;;;;;;5048170;28;20048;-78
2022/07/07 11:03:13;;;;;;;1.40;1.23;;;30.30;61.80;;;;;;5035719;28;20593;-78
2022/07/07 11:05:44;;;;;;;1.65;1.55;;;30.30;62.40;;;;;;5047937;28;20023;-78
2022/07/07 11:08:11;;;;;;;1.50;1.40;;;30.40;62.40;;;;;;5046584;28;20036;-78
2022/07/07 11:10:40;;;;;;;2.28;2.00;;;30.60;61.00;;;;;;5048125;28;20069;-78
2022/07/07 11:13:18;;;;;;;1.50;1.50;;;30.70;60.80;;;;;;5047913;28;20049;-78
2022/07/07 11:15:51;;;;;;;1.55;1.50;;;30.80;59.70;;;;;;5046667;28;20021;-78
2022/07/07 11:18:20;;;;;;;2.00;1.80;;;30.80;61.20;;;;;;5047300;28;20455;-78
2022/07/07 11:21:00;;;;;;;1.70;1.70;;;31.00;60.60;;;;;;5047362;28;20028;-78
2022/07/07 11:23:51;;;;;;;1.75;1.45;;;31.10;59.70;;;;;;5046323;28;20480;-78
2022/07/07 11:26:24;;;;;;;2.03;1.63;;;31.10;57.70;;;;;;5047602;28;20020;-79
2022/07/07 11:28:57;;;;;;;1.80;1.70;;;31.10;57.30;;;;;;5047425;28;20104;-78
2022/07/07 11:31:26;;;;;;;1.50;1.50;;;31.20;56.50;;;;;;5047367;28;20078;-78
2022/07/07 11:33:53;;;;;;;2.05;1.60;;;31.20;59.10;;;;;;5047800;28;20055;-78
2022/07/07 11:36:22;;;;;;;1.98;1.77;;;31.30;58.60;;;;;;5047836;28;20100;-79
2022/07/07 11:38:53;;;;;;;1.70;1.60;;;31.40;58.10;;;;;;5047169;28;20065;-78
2022/07/07 11:41:20;;;;;;;1.73;1.63;;;31.60;58.80;;;;;;5047281;28;20025;-78
2022/07/07 11:43:56;;;;;;;2.95;1.50;;;31.70;58.80;;;;;;5047472;27;20077;-78
2022/07/07 11:46:24;;;;;;;1.23;1.23;;;31.70;57.60;;;;;;5046465;27;20112;-78
2022/07/07 11:48:49;;;;;;;1.30;1.30;;;31.80;57.10;;;;;;5047197;27;20025;-78
2022/07/07 11:51:16;;;;;;;1.38;1.38;;;31.80;56.50;;;;;;5046988;27;20052;-78
2022/07/07 11:53:42;;;;;;;1.80;1.70;;;32.00;55.50;;;;;;5048132;27;20045;-78
2022/07/07 11:56:07;;;;;;;1.50;1.20;;;32.00;55.30;;;;;;5049587;27;20095;-78
2022/07/07 11:58:33;;;;;;;1.65;1.63;;;32.00;54.70;;;;;;5049734;27;20423;-78
2022/07/07 12:00:59;;;;;;;1.67;1.60;;;32.00;56.20;;;;;;5049617;27;20107;-78
2022/07/07 12:03:34;;;;;;;1.70;1.60;;;32.10;56.50;;;;;;5049504;27;20107;-75
2022/07/07 12:06:01;;;;;;;3.85;1.65;;;32.10;54.70;;;;;;5048864;28;20086;-76
2022/07/07 12:08:35;;;;;;;1.55;1.55;;;32.20;55.00;;;;;;5049347;28;20022;-76
2022/07/07 12:11:02;;;;;;;1.65;1.55;;;32.30;55.50;;;;;;5049384;28;20025;-76
2022/07/07 12:13:27;;;;;;;2.15;1.70;;;32.40;54.30;;;;;;5049288;28;20032;-75
2022/07/07 12:15:54;;;;;;;1.67;1.58;;;32.40;52.30;;;;;;5048101;28;20026;-75
2022/07/07 12:18:41;;;;;;;2.40;1.60;;;32.50;53.30;;;;;;5045178;28;20104;-75
2022/07/07 12:21:21;;;;;;;1.55;1.55;;;32.50;53.40;;;;;;5026363;28;20695;-75
2022/07/07 12:23:51;;;;;;;2.25;1.77;;;32.70;52.80;;;;;;5025442;28;20029;-75
2022/07/07 12:26:20;;;;;;;2.80;1.40;;;32.90;51.50;;;;;;5024478;28;20117;-75
2022/07/07 12:28:46;;;;;;;2.58;1.67;;;32.90;51.30;;;;;;5026019;28;20025;-75
2022/07/07 12:31:18;;;;;;;1.75;1.65;;;32.80;51.30;;;;;;5028926;28;20032;-78
2022/07/07 12:33:43;;;;;;;1.67;1.33;;;32.80;53.50;;;;;;5038847;28;20026;-75
2022/07/07 12:36:18;;;;;;;2.58;1.70;;;32.90;53.90;;;;;;5048780;28;20033;-76
2022/07/07 12:38:51;;;;;;;1.55;1.45;;;33.20;53.60;;;;;;5049054;28;20021;-75
2022/07/07 12:41:38;;;;;;;1.80;1.70;;;33.20;52.10;;;;;;5049451;28;20476;-76
2022/07/07 12:44:26;;;;;;;2.55;1.50;;;33.40;54.00;;;;;;5047410;28;20036;-75
2022/07/07 12:46:56;;;;;;;1.90;1.60;;;33.70;51.40;;;;;;5049250;28;20029;-75
2022/07/07 12:49:22;;;;;;;1.80;1.70;;;33.70;51.30;;;;;;5049100;28;20016;-75
2022/07/07 12:51:50;;;;;;;1.85;1.75;;;33.80;51.00;;;;;;5049397;28;20073;-75
2022/07/07 12:54:45;;;;;;;2.22;1.40;;;33.90;50.50;;;;;;5049191;28;20485;-75
2022/07/07 12:57:10;;;;;;;2.03;1.73;;;33.90;49.70;;;;;;5043896;28;20097;-75
2022/07/07 12:59:44;;;;;;;1.40;1.20;;;33.70;49.80;;;;;;5049404;28;20024;-75
2022/07/07 13:02:10;;;;;;;3.35;2.25;;;33.70;49.90;;;;;;5049051;28;20144;-75
2022/07/07 13:04:36;;;;;;;1.40;1.40;;;33.40;50.30;;;;;;5048058;28;20027;-75
2022/07/07 13:07:02;;;;;;;1.45;1.38;;;33.50;50.20;;;;;;5047870;28;20413;-75
2022/07/07 13:09:27;;;;;;;1.83;1.73;;;33.80;50.70;;;;;;5048552;28;20044;-75
2022/07/07 13:11:53;;;;;;;8.80;2.15;;;34.10;50.80;;;;;;5048565;28;20066;-75